Time;durP1;ratioP1;P1;durP2;ratioP2;P2;SDS_P1;SDS_P2;PMS_P1;PMS_P2;Temp;Humidity;BMP_temperature;BMP_pressure;BME280_temperature;BME280_humidity;BME280_pressure;Samples;Min_cycle;Max_cycle;Signal;HPM_P1;HPM_P2
2022/03/26 00:03:39;;;;;;;10.77;8.48;;;;;;;5.24;100.00;99616.25;10322682;28;20061;-59
2022/03/26 00:08:42;;;;;;;10.30;8.20;;;;;;;5.14;100.00;99616.94;10324910;28;20074;-59
2022/03/26 00:13:45;;;;;;;13.65;8.50;;;;;;;5.06;100.00;99610.25;10323900;28;20043;-60
2022/03/26 00:18:49;;;;;;;11.77;8.27;;;;;;;4.99;100.00;99614.28;10324655;28;20046;-60
2022/03/26 00:23:53;;;;;;;9.65;7.82;;;;;;;4.90;100.00;99613.03;10322663;28;20117;-60
2022/03/26 00:28:56;;;;;;;10.57;8.15;;;;;;;4.81;100.00;99616.28;10306346;28;20061;-61
2022/03/26 00:34:00;;;;;;;12.27;8.65;;;;;;;4.75;100.00;99616.69;10328829;28;20046;-61
2022/03/26 00:39:04;;;;;;;10.27;8.15;;;;;;;4.68;100.00;99613.53;10332190;28;20080;-59
2022/03/26 00:44:07;;;;;;;12.80;8.50;;;;;;;4.64;100.00;99601.31;10325722;28;20054;-59
2022/03/26 00:49:11;;;;;;;11.73;8.63;;;;;;;4.55;100.00;99597.38;10314087;28;20126;-61
2022/03/26 00:54:14;;;;;;;9.30;8.10;;;;;;;4.48;100.00;99588.88;10341522;28;20124;-59
2022/03/26 00:59:18;;;;;;;10.95;8.57;;;;;;;4.41;100.00;99600.06;10351261;28;20426;-61
2022/03/26 01:04:22;;;;;;;10.63;8.85;;;;;;;4.33;100.00;99603.19;10335082;28;20133;-60
2022/03/26 01:09:25;;;;;;;12.50;8.73;;;;;;;4.24;100.00;99596.59;10331072;28;20069;-59
2022/03/26 01:14:28;;;;;;;11.85;8.80;;;;;;;4.20;100.00;99608.38;10325281;28;20125;-60
2022/03/26 01:19:33;;;;;;;11.80;8.90;;;;;;;4.13;100.00;99601.69;10329813;28;20081;-60
2022/03/26 01:24:36;;;;;;;11.38;9.02;;;;;;;4.06;100.00;99605.69;10334835;28;20049;-62
2022/03/26 01:29:40;;;;;;;13.45;8.65;;;;;;;4.01;100.00;99604.13;10336815;28;20475;-58
2022/03/26 01:34:46;;;;;;;11.98;9.00;;;;;;;3.96;100.00;99600.03;10308876;28;20054;-57
2022/03/26 01:39:49;;;;;;;11.95;8.55;;;;;;;3.88;100.00;99597.81;10330084;28;20038;-59
2022/03/26 01:44:51;;;;;;;11.75;9.30;;;;;;;3.81;100.00;99601.78;10322261;28;20068;-59
2022/03/26 01:49:56;;;;;;;12.18;9.60;;;;;;;3.75;100.00;99602.13;10324771;28;20048;-59
2022/03/26 01:54:59;;;;;;;11.27;9.35;;;;;;;3.66;100.00;99598.19;10325389;28;20058;-60
2022/03/26 02:00:04;;;;;;;11.32;8.85;;;;;;;3.49;100.00;99602.69;10313583;28;20050;-58
2022/03/26 02:05:41;;;;;;;12.32;9.55;;;;;;;3.43;100.00;99602.16;10327305;28;20302;-59
2022/03/26 02:10:44;;;;;;;13.23;9.77;;;;;;;3.38;100.00;99603.28;10326704;28;20054;-57
2022/03/26 02:15:47;;;;;;;11.13;9.38;;;;;;;3.35;100.00;99610.59;10327028;28;20050;-57
2022/03/26 02:20:51;;;;;;;15.32;9.68;;;;;;;3.32;100.00;99600.09;10338831;28;20035;-59
2022/03/26 02:25:54;;;;;;;13.02;9.32;;;;;;;3.29;100.00;99606.47;10341310;28;20065;-59
2022/03/26 02:30:57;;;;;;;10.77;9.10;;;;;;;3.24;100.00;99603.19;10332755;28;20042;-57
2022/03/26 02:36:01;;;;;;;12.48;9.55;;;;;;;3.18;100.00;99603.53;10314771;28;20046;-60
2022/03/26 02:41:05;;;;;;;13.70;9.68;;;;;;;3.12;100.00;99594.09;10323809;28;20042;-59
2022/03/26 02:46:08;;;;;;;13.98;9.48;;;;;;;3.06;100.00;99595.28;10325458;28;20080;-58
2022/03/26 02:51:12;;;;;;;10.68;9.10;;;;;;;3.01;100.00;99596.47;10324550;28;20034;-59
2022/03/26 02:56:15;;;;;;;12.60;10.98;;;;;;;2.95;100.00;99597.69;10350690;28;20060;-59
2022/03/26 03:01:19;;;;;;;14.13;11.60;;;;;;;2.84;100.00;99589.41;10325400;28;20046;-58
2022/03/26 03:06:25;;;;;;;16.05;10.43;;;;;;;2.78;100.00;99594.13;10325878;28;20060;-60
2022/03/26 03:11:29;;;;;;;13.48;10.05;;;;;;;2.75;100.00;99591.66;10324829;28;20041;-58
2022/03/26 03:16:32;;;;;;;12.73;10.00;;;;;;;2.72;100.00;99578.50;10325808;28;20847;-58
2022/03/26 03:21:37;;;;;;;11.90;9.60;;;;;;;2.68;100.00;99590.22;10325398;28;20049;-59
2022/03/26 03:26:40;;;;;;;12.75;9.45;;;;;;;2.64;100.00;99588.69;10326038;28;20425;-59
2022/03/26 03:31:47;;;;;;;12.18;9.50;;;;;;;2.60;100.00;99589.78;10326631;28;20121;-60
2022/03/26 03:36:51;;;;;;;14.25;9.57;;;;;;;2.56;100.00;99590.88;10324589;28;20451;-59
2022/03/26 03:41:54;;;;;;;13.45;9.55;;;;;;;2.50;100.00;99592.06;10324012;28;20125;-59
2022/03/26 03:46:58;;;;;;;12.90;10.23;;;;;;;2.44;100.00;99587.94;10308261;28;20054;-59
2022/03/26 03:52:04;;;;;;;13.98;10.30;;;;;;;2.40;100.00;99591.72;10310638;28;20739;-61
2022/03/26 03:57:07;;;;;;;16.75;10.40;;;;;;;2.33;100.00;99590.31;10316381;28;20141;-60
2022/03/26 04:02:11;;;;;;;13.32;10.68;;;;;;;2.25;100.00;99582.72;10325028;28;20046;-58
2022/03/26 04:07:15;;;;;;;14.40;11.10;;;;;;;2.18;100.00;99581.31;10329298;28;20056;-60
2022/03/26 04:12:18;;;;;;;13.88;11.05;;;;;;;2.12;100.00;99579.84;10311518;28;20042;-58
2022/03/26 04:17:21;;;;;;;11.95;10.50;;;;;;;2.04;100.00;99581.16;10315106;28;20478;-57
2022/03/26 04:22:26;;;;;;;13.63;10.98;;;;;;;1.99;100.00;99586.72;10331569;28;20419;-60
2022/03/26 04:27:29;;;;;;;12.32;10.68;;;;;;;1.95;100.00;99585.16;10333815;28;20054;-60
2022/03/26 04:32:32;;;;;;;14.98;11.10;;;;;;;1.91;100.00;99584.44;10329637;28;20034;-61
2022/03/26 04:37:37;;;;;;;15.63;10.48;;;;;;;1.85;100.00;99598.06;10330071;28;20050;-61
2022/03/26 04:42:41;;;;;;;14.27;10.85;;;;;;;1.84;100.00;99599.00;10334518;28;20125;-60
2022/03/26 04:47:44;;;;;;;15.32;10.75;;;;;;;1.79;100.00;99603.66;10330528;28;20081;-61
2022/03/26 04:52:49;;;;;;;15.50;10.70;;;;;;;1.77;100.00;99601.09;10357694;28;20037;-60
2022/03/26 04:57:52;;;;;;;15.43;10.43;;;;;;;1.74;100.00;99603.03;10337221;28;20150;-58
2022/03/26 05:02:55;;;;;;;13.15;10.20;;;;;;;1.69;100.00;99606.78;10328241;28;20065;-61
2022/03/26 05:08:00;;;;;;;14.70;10.45;;;;;;;1.67;100.00;99602.50;10334408;28;20042;-59
2022/03/26 05:13:04;;;;;;;13.32;10.25;;;;;;;1.63;100.00;99619.50;10331016;28;20515;-59
2022/03/26 05:18:08;;;;;;;12.15;10.60;;;;;;;1.60;100.00;99615.22;10335052;28;20066;-60
2022/03/26 05:23:12;;;;;;;12.15;9.90;;;;;;;1.58;100.00;99621.53;10335048;28;20685;-59
2022/03/26 05:28:16;;;;;;;11.85;9.93;;;;;;;1.58;100.00;99619.72;10330961;28;20046;-61
2022/03/26 05:33:19;;;;;;;13.07;10.38;;;;;;;1.58;100.00;99618.88;10327270;28;20471;-61
2022/03/26 05:38:23;;;;;;;13.77;10.13;;;;;;;1.56;100.00;99616.28;10330956;28;20506;-61
2022/03/26 05:43:27;;;;;;;11.27;9.82;;;;;;;1.56;100.00;99620.75;10333084;28;20038;-60
2022/03/26 05:48:30;;;;;;;12.93;11.05;;;;;;;1.59;100.00;99628.56;10343486;28;20117;-61
2022/03/26 05:53:34;;;;;;;15.80;11.25;;;;;;;1.58;100.00;99627.69;10342358;28;20088;-60
2022/03/26 05:58:38;;;;;;;15.10;11.32;;;;;;;1.63;100.00;99632.78;10310186;28;20050;-60
2022/03/26 06:03:41;;;;;;;14.20;11.88;;;;;;;1.64;100.00;99638.03;10304944;28;20514;-59
2022/03/26 06:08:46;;;;;;;18.20;11.90;;;;;;;1.66;100.00;99644.13;10302430;28;20054;-60
2022/03/26 06:13:49;;;;;;;14.05;11.57;;;;;;;1.71;100.00;99645.69;10309274;28;20050;-57
2022/03/26 06:18:53;;;;;;;14.38;10.75;;;;;;;1.78;100.00;99652.44;10326713;28;20038;-60
2022/03/26 06:23:58;;;;;;;13.55;10.85;;;;;;;1.84;100.00;99658.31;10303374;28;20062;-60
2022/03/26 06:29:01;;;;;;;13.45;11.05;;;;;;;1.92;100.00;99665.91;10320948;28;20126;-58
2022/03/26 06:34:04;;;;;;;14.00;10.52;;;;;;;2.04;100.00;99668.88;10323382;28;20038;-57
2022/03/26 06:39:09;;;;;;;14.70;10.60;;;;;;;2.12;100.00;99672.91;10304520;28;20049;-59
2022/03/26 06:44:13;;;;;;;15.27;10.90;;;;;;;2.26;100.00;99677.50;10309459;28;20050;-60
2022/03/26 06:49:16;;;;;;;13.73;10.73;;;;;;;2.36;100.00;99680.56;10321496;28;20046;-58
2022/03/26 06:54:20;;;;;;;13.52;10.55;;;;;;;2.48;100.00;99684.41;10318084;28;20054;-60
2022/03/26 06:59:24;;;;;;;11.65;10.15;;;;;;;2.60;100.00;99683.75;10325286;28;20038;-56
2022/03/26 07:04:28;;;;;;;13.73;11.10;;;;;;;2.72;100.00;99684.94;10325149;28;20039;-58
2022/03/26 07:09:32;;;;;;;13.80;10.82;;;;;;;2.81;100.00;99682.72;10325140;28;20049;-59
2022/03/26 07:14:35;;;;;;;13.23;11.23;;;;;;;2.92;100.00;99685.69;10324031;28;20092;-60
2022/03/26 07:19:38;;;;;;;13.32;11.30;;;;;;;3.05;100.00;99694.75;10324645;28;20046;-60
2022/03/26 07:24:43;;;;;;;16.30;11.48;;;;;;;3.21;100.00;99688.59;10314014;28;20129;-61
2022/03/26 07:29:48;;;;;;;14.50;11.63;;;;;;;3.37;100.00;99692.13;10326065;28;20562;-61
2022/03/26 07:34:51;;;;;;;13.85;11.48;;;;;;;3.57;100.00;99695.53;10318223;28;20084;-60
2022/03/26 07:39:56;;;;;;;15.80;11.38;;;;;;;3.80;100.00;99685.38;10328706;28;20502;-59
2022/03/26 07:44:59;;;;;;;13.40;10.60;;;;;;;3.96;100.00;99696.03;10332671;28;20062;-54
2022/03/26 07:50:02;;;;;;;12.88;11.13;;;;;;;4.20;100.00;99687.56;10334035;28;20608;-56
2022/03/26 07:55:08;;;;;;;13.95;11.15;;;;;;;4.43;100.00;99684.41;10329772;28;20054;-52
2022/03/26 08:00:12;;;;;;;15.73;11.27;;;;;;;4.69;100.00;99689.13;10333514;28;20133;-55
2022/03/26 08:05:15;;;;;;;16.30;10.93;;;;;;;4.91;100.00;99683.34;10331556;28;20047;-55
2022/03/26 08:10:20;;;;;;;12.98;10.70;;;;;;;5.17;100.00;99684.41;10332867;28;20089;-55
2022/03/26 08:15:23;;;;;;;12.77;10.43;;;;;;;5.50;100.00;99680.53;10333382;28;20096;-56
2022/03/26 08:20:27;;;;;;;12.85;10.50;;;;;;;5.81;100.00;99673.25;10330296;28;20077;-57
2022/03/26 08:30:52;;;;;;;;;;;;;;;6.39;100.00;99683.75;10315169;28;20089;-53
2022/03/26 08:35:55;;;;;;;17.83;10.93;;;;;;;6.67;100.00;99687.19;10338468;28;19922;-58
2022/03/26 08:41:00;;;;;;;13.25;10.80;;;;;;;6.98;100.00;99686.91;10317258;28;20053;-53
2022/03/26 08:46:04;;;;;;;11.80;10.43;;;;;;;7.34;100.00;99685.28;10357044;28;20071;-52
2022/03/26 08:51:07;;;;;;;14.52;10.52;;;;;;;7.63;100.00;99685.88;10339427;28;20042;-56
2022/03/26 08:56:12;;;;;;;16.88;10.93;;;;;;;7.96;100.00;99687.03;10330617;28;20060;-57
2022/03/26 09:01:16;;;;;;;17.60;11.07;;;;;;;8.32;100.00;99682.59;10326648;28;20050;-53
2022/03/26 09:06:20;;;;;;;17.13;9.82;;;;;;;8.70;100.00;99685.19;10323493;28;20049;-57
2022/03/26 09:11:24;;;;;;;16.15;11.05;;;;;;;9.10;100.00;99680.25;10331927;28;20070;-61
2022/03/26 09:16:29;;;;;;;14.80;10.73;;;;;;;9.45;100.00;99686.50;10336394;28;20747;-52
2022/03/26 09:21:33;;;;;;;12.93;10.73;;;;;;;9.74;100.00;99680.59;10321722;28;20064;-59
2022/03/26 09:26:38;;;;;;;14.68;11.05;;;;;;;10.07;100.00;99681.50;10342229;28;20085;-61
2022/03/26 09:31:41;;;;;;;13.48;10.50;;;;;;;10.50;100.00;99678.94;10343580;28;20047;-58
2022/03/26 09:36:45;;;;;;;14.70;11.05;;;;;;;10.79;100.00;99671.91;10344759;28;20038;-61
2022/03/26 09:41:51;;;;;;;15.25;10.40;;;;;;;11.06;100.00;99666.94;10325197;28;20048;-59
2022/03/26 09:46:54;;;;;;;13.00;10.20;;;;;;;11.29;100.00;99672.19;10337551;28;20113;-59
2022/03/26 09:51:59;;;;;;;12.00;9.52;;;;;;;11.61;100.00;99663.91;10327911;28;20156;-60
2022/03/26 09:57:04;;;;;;;14.02;8.90;;;;;;;11.90;100.00;99656.88;10335702;23;20406;-79
2022/03/26 10:02:08;;;;;;;9.63;7.43;;;;;;;12.29;100.00;99649.69;10330828;28;20056;-81
2022/03/26 10:07:13;;;;;;;11.82;7.70;;;;;;;12.53;87.84;99652.97;10314502;28;20043;-76
2022/03/26 10:12:21;;;;;;;10.50;6.65;;;;;;;12.82;81.74;99649.38;10332910;28;20157;-77
2022/03/26 10:17:26;;;;;;;8.32;5.20;;;;;;;13.03;66.39;99651.84;10340332;28;20561;-79
2022/03/26 10:22:36;;;;;;;10.40;4.50;;;;;;;13.18;68.82;99639.56;10338449;28;20110;-77
2022/03/26 10:27:44;;;;;;;6.10;2.95;;;;;;;13.28;66.17;99638.69;10335085;28;20047;-78
2022/03/26 10:32:49;;;;;;;7.57;5.00;;;;;;;13.25;75.08;99631.72;10343275;28;20499;-78
2022/03/26 10:37:58;;;;;;;5.22;4.05;;;;;;;13.50;74.71;99616.66;10316414;28;20399;-79
2022/03/26 10:43:07;;;;;;;6.18;5.07;;;;;;;13.60;73.91;99626.56;10339970;28;20058;-78
2022/03/26 10:48:11;;;;;;;8.57;5.57;;;;;;;13.86;78.93;99614.03;10334903;28;20057;-78
2022/03/26 10:53:15;;;;;;;9.98;5.80;;;;;;;13.91;75.23;99610.84;10335949;28;20050;-76
2022/03/26 10:58:21;;;;;;;9.32;6.28;;;;;;;14.03;66.88;99600.66;10321732;28;20122;-79
2022/03/26 11:03:24;;;;;;;9.43;6.60;;;;;;;14.21;70.82;99603.34;10336552;28;20077;-80
2022/03/26 11:08:32;;;;;;;12.77;6.63;;;;;;;14.17;66.34;99601.94;10318933;28;20048;-78
2022/03/26 11:13:43;;;;;;;9.27;6.55;;;;;;;14.27;68.47;99596.47;10325046;28;20117;-78
2022/03/26 11:18:57;;;;;;;9.93;6.32;;;;;;;14.36;64.40;99600.06;10329288;28;20050;-79
2022/03/26 11:24:28;;;;;;;11.43;7.38;;;;;;;14.57;62.62;99591.59;10310482;28;20047;-78
2022/03/26 11:29:57;;;;;;;9.52;6.60;;;;;;;14.74;61.64;99590.75;10326268;28;20153;-77
2022/03/26 11:35:04;;;;;;;7.38;5.53;;;;;;;14.94;62.10;99582.38;10328859;28;20052;-78
2022/03/26 11:40:08;;;;;;;8.52;5.40;;;;;;;14.86;59.93;99591.31;10326673;28;20811;-79
2022/03/26 11:50:42;;;;;;;8.93;5.38;;;;;;;14.90;58.66;99564.69;10311729;28;20430;-77
2022/03/26 11:55:46;;;;;;;7.05;5.00;;;;;;;15.02;59.10;99549.84;10315156;28;20043;-78
2022/03/26 12:00:56;;;;;;;6.53;4.50;;;;;;;15.21;59.29;99562.31;10327093;28;20411;-77
2022/03/26 12:11:26;;;;;;;8.43;5.85;;;;;;;15.30;57.25;99565.91;10337633;28;20050;-79
2022/03/26 12:16:56;;;;;;;7.22;5.13;;;;;;;15.52;56.70;99552.75;10327211;28;20133;-78
2022/03/26 12:21:59;;;;;;;4.75;3.70;;;;;;;15.65;55.30;99544.97;10330023;28;20105;-76
2022/03/26 12:27:06;;;;;;;6.97;4.50;;;;;;;15.65;55.00;99534.09;10329928;28;20054;-76
2022/03/26 12:32:10;;;;;;;7.53;4.60;;;;;;;15.75;54.85;99530.38;10328495;28;20132;-76
2022/03/26 12:37:18;;;;;;;7.60;4.60;;;;;;;15.98;54.97;99526.03;10330280;28;20034;-75
2022/03/26 12:42:22;;;;;;;7.70;3.80;;;;;;;16.09;54.95;99522.13;10319657;28;20483;-76
2022/03/26 12:47:28;;;;;;;6.88;3.80;;;;;;;16.12;53.02;99527.19;10330925;28;20057;-75
2022/03/26 12:52:31;;;;;;;5.70;3.60;;;;;;;16.23;52.97;99506.16;10329428;28;20487;-76
2022/03/26 13:03:02;;;;;;;3.70;2.25;;;;;;;16.46;51.02;99498.94;10329310;28;20053;-76
2022/03/26 13:08:12;;;;;;;4.10;2.80;;;;;;;16.39;51.49;99499.84;10327979;28;20046;-75
2022/03/26 13:13:15;;;;;;;3.95;2.50;;;;;;;16.43;52.36;99517.50;10311941;28;20057;-77
2022/03/26 13:18:21;;;;;;;3.33;2.50;;;;;;;16.53;51.43;99501.00;10335135;28;20074;-76
2022/03/26 13:23:29;;;;;;;5.35;2.60;;;;;;;16.80;53.13;99499.72;10323916;23;20061;-63
2022/03/26 13:28:34;;;;;;;3.15;2.70;;;;;;;16.53;49.42;99501.81;10288936;28;20599;-59
2022/03/26 13:33:39;;;;;;;4.93;2.90;;;;;;;16.72;50.07;99489.72;10298127;28;20360;-60
2022/03/26 13:38:44;;;;;;;4.93;2.70;;;;;;;17.13;52.35;99493.34;10293948;28;20117;-58
2022/03/26 13:43:49;;;;;;;5.97;2.90;;;;;;;17.26;50.44;99482.72;10291843;28;20133;-59
2022/03/26 13:48:55;;;;;;;3.55;2.80;;;;;;;17.41;50.46;99485.53;10303819;28;20054;-59
2022/03/26 13:54:02;;;;;;;3.35;2.75;;;;;;;17.42;50.96;99473.59;10294167;28;20038;-60
2022/03/26 13:59:06;;;;;;;5.90;2.58;;;;;;;17.46;50.89;99480.41;10303693;28;20043;-63
2022/03/26 14:04:21;;;;;;;3.13;2.47;;;;;;;17.45;50.57;99472.38;10289065;28;20038;-60
2022/03/26 14:09:25;;;;;;;3.80;2.30;;;;;;;17.67;49.71;99466.09;10282627;28;20047;-57
2022/03/26 14:14:28;;;;;;;4.47;2.58;;;;;;;17.73;48.68;99461.78;10298956;28;20077;-58
2022/03/26 14:19:32;;;;;;;3.30;2.20;;;;;;;17.81;50.39;99450.84;10291765;28;20125;-56
2022/03/26 14:24:37;;;;;;;5.18;2.42;;;;;;;17.62;49.72;99459.50;10272061;28;20065;-56
2022/03/26 14:29:40;;;;;;;3.25;2.30;;;;;;;18.61;49.01;99451.25;10288680;28;20050;-62
2022/03/26 14:34:50;;;;;;;4.18;2.40;;;;;;;18.79;46.74;99452.78;10300464;28;20061;-60
2022/03/26 14:39:53;;;;;;;4.10;2.70;;;;;;;18.54;46.82;99454.91;10300433;28;20058;-60
2022/03/26 14:44:56;;;;;;;3.17;2.53;;;;;;;18.78;47.93;99441.00;10290474;28;20035;-62
2022/03/26 14:50:01;;;;;;;3.83;2.80;;;;;;;18.34;47.09;99428.19;10299543;28;20492;-60
2022/03/26 14:55:05;;;;;;;4.45;2.60;;;;;;;18.35;46.99;99434.50;10291506;28;20114;-57
2022/03/26 15:00:12;;;;;;;4.60;2.70;;;;;;;18.44;48.95;99426.03;10297736;28;20042;-56
2022/03/26 15:05:19;;;;;;;4.40;2.65;;;;;;;18.31;47.98;99428.56;10292079;28;20081;-63
2022/03/26 15:10:22;;;;;;;4.38;2.53;;;;;;;18.34;48.22;99422.75;10289242;28;20050;-65
2022/03/26 15:15:30;;;;;;;4.85;2.70;;;;;;;18.35;47.41;99429.91;10274110;28;20074;-60
2022/03/26 15:20:36;;;;;;;4.03;2.80;;;;;;;18.82;46.34;99424.22;10289984;28;20440;-63
2022/03/26 15:25:39;;;;;;;3.72;2.58;;;;;;;18.56;46.47;99428.31;10247117;28;1140943;-62
2022/03/26 15:30:42;;;;;;;5.32;2.58;;;;;;;18.68;46.69;99417.75;10289381;28;20050;-57
2022/03/26 15:35:47;;;;;;;4.38;2.50;;;;;;;19.05;45.60;99416.78;10284045;28;20105;-61
2022/03/26 15:40:51;;;;;;;4.47;2.60;;;;;;;19.12;45.75;99414.13;10293123;28;20042;-61
2022/03/26 15:46:06;;;;;;;3.83;2.55;;;;;;;19.14;45.50;99416.66;10292617;28;20042;-60
2022/03/26 15:51:13;;;;;;;7.75;2.60;;;;;;;19.33;44.92;99405.13;10300113;28;20136;-60
2022/03/26 15:56:19;;;;;;;5.32;2.40;;;;;;;19.35;45.25;99408.47;10299333;28;20046;-64
2022/03/26 16:01:24;;;;;;;5.13;2.30;;;;;;;19.52;45.07;99405.50;10302024;28;20047;-62
2022/03/26 16:06:29;;;;;;;4.70;2.30;;;;;;;18.99;45.57;99409.38;10309865;28;20117;-60
2022/03/26 16:11:33;;;;;;;3.33;2.28;;;;;;;18.62;45.64;99406.56;10307783;28;20038;-61
2022/03/26 16:16:36;;;;;;;4.20;2.35;;;;;;;18.76;47.30;99404.00;10308032;28;20395;-61
2022/03/26 16:21:40;;;;;;;3.45;2.08;;;;;;;18.86;47.04;99401.00;10308675;28;20047;-62
2022/03/26 16:26:44;;;;;;;3.35;1.80;;;;;;;19.01;47.11;99412.72;10312067;28;20053;-59
2022/03/26 16:31:47;;;;;;;4.15;1.42;;;;;;;18.69;45.85;99403.91;10306050;28;20053;-60
2022/03/26 16:36:51;;;;;;;1.80;1.20;;;;;;;18.50;45.11;99410.81;10311938;28;20053;-60
2022/03/26 16:41:54;;;;;;;2.80;1.20;;;;;;;18.36;45.77;99415.22;10310469;28;20049;-64
2022/03/26 16:46:57;;;;;;;2.90;1.40;;;;;;;18.27;46.09;99410.91;10311905;28;20038;-61
2022/03/26 16:52:02;;;;;;;2.95;1.40;;;;;;;18.09;46.31;99414.81;10311567;28;20050;-61
2022/03/26 16:57:06;;;;;;;3.00;1.60;;;;;;;18.21;46.28;99423.41;10299010;28;20476;-60
2022/03/26 17:02:10;;;;;;;2.95;1.60;;;;;;;18.00;46.87;99413.22;10311081;28;20046;-60
2022/03/26 17:07:14;;;;;;;2.13;1.38;;;;;;;17.93;46.94;99417.69;10303420;28;20043;-62
2022/03/26 17:12:19;;;;;;;2.25;1.67;;;;;;;17.94;47.62;99417.50;10306721;28;20497;-59
2022/03/26 17:17:22;;;;;;;2.10;1.55;;;;;;;17.58;47.90;99425.47;10304164;28;20050;-58
2022/03/26 17:22:27;;;;;;;3.78;1.55;;;;;;;17.17;47.89;99424.72;10316882;28;20054;-61
2022/03/26 17:27:30;;;;;;;4.10;1.70;;;;;;;17.08;48.52;99433.97;10305328;28;20488;-59
2022/03/26 17:32:33;;;;;;;2.10;1.48;;;;;;;16.85;48.82;99432.00;10305260;28;20047;-58
2022/03/26 17:37:37;;;;;;;6.38;1.80;;;;;;;16.65;50.69;99434.31;10293476;28;20051;-63
2022/03/26 17:42:40;;;;;;;2.38;1.88;;;;;;;16.39;50.93;99445.44;10287154;28;20057;-59
2022/03/26 17:47:43;;;;;;;2.78;1.80;;;;;;;16.14;52.64;99448.22;10286623;28;20126;-60
2022/03/26 17:52:48;;;;;;;2.65;1.90;;;;;;;15.86;54.63;99456.72;10289567;28;20055;-59
2022/03/26 17:57:51;;;;;;;6.47;1.85;;;;;;;15.72;55.38;99456.34;10295744;28;20050;-55
2022/03/26 18:02:54;;;;;;;4.40;4.00;;;;;;;15.56;57.33;99467.22;10287965;28;20051;-55
2022/03/26 18:07:58;;;;;;;4.78;4.00;;;;;;;15.47;58.72;99466.34;10290467;28;20047;-59
2022/03/26 18:13:01;;;;;;;4.45;3.97;;;;;;;15.39;60.09;99471.75;10289932;28;20404;-60
2022/03/26 18:18:07;;;;;;;4.13;2.30;;;;;;;15.30;63.05;99484.47;10286960;28;20133;-58
2022/03/26 18:23:11;;;;;;;3.65;2.35;;;;;;;15.13;69.38;99488.13;10290654;28;20427;-57
2022/03/26 18:28:14;;;;;;;3.85;2.90;;;;;;;15.07;73.21;99493.22;10272377;28;20060;-55
2022/03/26 18:33:17;;;;;;;6.18;3.38;;;;;;;14.93;78.45;99497.38;10303741;28;20495;-59
2022/03/26 18:38:22;;;;;;;5.15;3.42;;;;;;;14.87;85.42;99499.94;10306485;28;20046;-63
2022/03/26 18:43:25;;;;;;;4.95;3.78;;;;;;;14.75;89.86;99504.78;10286958;28;20063;-57
2022/03/26 18:48:28;;;;;;;4.85;3.92;;;;;;;14.68;93.23;99518.13;10287826;28;20501;-56
2022/03/26 18:53:33;;;;;;;5.13;3.90;;;;;;;14.59;96.00;99509.06;10288227;28;20223;-54
2022/03/26 18:58:36;;;;;;;6.20;4.35;;;;;;;14.47;99.48;99513.91;10274512;28;20042;-56
2022/03/26 19:03:39;;;;;;;6.50;4.70;;;;;;;14.39;100.00;99513.00;10293518;28;20054;-58
2022/03/26 19:08:44;;;;;;;6.95;4.60;;;;;;;14.33;100.00;99509.06;10277115;28;20591;-60
2022/03/26 19:13:48;;;;;;;5.47;4.75;;;;;;;14.29;100.00;99519.38;10290990;28;20504;-62
2022/03/26 19:18:51;;;;;;;5.93;4.80;;;;;;;14.22;100.00;99518.31;10292785;28;20491;-60
2022/03/26 19:23:58;;;;;;;6.20;4.40;;;;;;;14.12;100.00;99523.81;10298871;28;20086;-60
2022/03/26 19:34:25;;;;;;;8.60;4.85;;;;;;;13.96;100.00;99529.09;10275189;28;20058;-57
2022/03/26 19:39:29;;;;;;;6.57;4.88;;;;;;;13.90;100.00;99529.72;10305120;28;20061;-57
2022/03/26 19:44:34;;;;;;;7.18;4.90;;;;;;;13.85;100.00;99536.47;10275271;28;20415;-55
2022/03/26 19:49:37;;;;;;;6.10;5.10;;;;;;;13.77;100.00;99539.09;10296278;28;20061;-56
2022/03/26 19:54:42;;;;;;;5.40;4.55;;;;;;;13.71;100.00;99537.00;10301843;28;20097;-59
2022/03/26 19:59:46;;;;;;;6.32;4.78;;;;;;;13.66;100.00;99539.34;10298464;28;20145;-60
2022/03/26 20:04:49;;;;;;;4.95;4.40;;;;;;;13.64;100.00;99553.00;10296058;28;20098;-59
2022/03/26 20:09:54;;;;;;;5.35;4.13;;;;;;;13.62;100.00;99556.88;10287932;28;20053;-57
2022/03/26 20:14:57;;;;;;;5.00;4.18;;;;;;;13.51;100.00;99566.94;10291808;28;20066;-57
2022/03/26 20:20:00;;;;;;;6.07;4.38;;;;;;;13.49;100.00;99563.50;10275607;28;20049;-60
2022/03/26 20:25:05;;;;;;;5.72;4.07;;;;;;;13.44;100.00;99573.09;10289609;28;20059;-58
2022/03/26 20:30:09;;;;;;;6.22;4.00;;;;;;;13.39;100.00;99568.09;10316081;28;20413;-58
2022/03/26 20:35:12;;;;;;;6.85;4.22;;;;;;;13.32;100.00;99570.56;10300399;28;20133;-58
2022/03/26 20:40:17;;;;;;;5.10;4.15;;;;;;;13.26;100.00;99577.44;10289637;28;20110;-59
2022/03/26 20:45:20;;;;;;;5.97;3.80;;;;;;;13.21;100.00;99579.75;10298938;28;20126;-57
2022/03/26 20:50:23;;;;;;;7.15;3.83;;;;;;;13.19;100.00;99576.34;10291238;28;20042;-57
2022/03/26 20:55:28;;;;;;;5.85;3.80;;;;;;;13.14;100.00;99581.34;10299780;28;20050;-62
2022/03/26 21:00:31;;;;;;;4.38;3.63;;;;;;;13.12;100.00;99586.03;10288291;28;20054;-58
2022/03/26 21:05:36;;;;;;;4.18;3.42;;;;;;;13.08;100.00;99592.75;10293931;28;20410;-58
2022/03/26 21:10:40;;;;;;;6.95;3.50;;;;;;;13.04;100.00;99591.34;10298386;28;20410;-58
2022/03/26 21:15:43;;;;;;;5.15;3.60;;;;;;;12.99;100.00;99599.91;10292116;28;20383;-56
2022/03/26 21:20:46;;;;;;;4.38;3.40;;;;;;;12.98;100.00;99597.38;10296009;28;20081;-58
2022/03/26 21:25:52;;;;;;;5.90;3.58;;;;;;;12.94;100.00;99610.31;10290668;28;20608;-55
2022/03/26 21:30:57;;;;;;;5.15;3.33;;;;;;;12.89;100.00;99608.03;10292370;28;20043;-57
2022/03/26 21:36:00;;;;;;;4.68;3.17;;;;;;;12.85;100.00;99609.34;10286542;28;20753;-57
2022/03/26 21:41:05;;;;;;;6.13;3.53;;;;;;;12.81;100.00;99607.09;10294041;28;20138;-56
2022/03/26 21:46:08;;;;;;;4.55;3.50;;;;;;;12.73;100.00;99614.06;10284722;28;20125;-58
2022/03/26 21:51:12;;;;;;;4.22;3.10;;;;;;;12.75;100.00;99620.19;10284595;28;20070;-55
2022/03/26 21:56:16;;;;;;;5.55;3.53;;;;;;;12.71;100.00;99620.63;10290763;28;20070;-57
2022/03/26 22:01:19;;;;;;;5.15;3.35;;;;;;;12.70;100.00;99624.34;10287665;28;20049;-55
2022/03/26 22:06:22;;;;;;;6.20;3.53;;;;;;;12.67;100.00;99625.47;10295026;28;20780;-57
2022/03/26 22:11:27;;;;;;;4.03;3.22;;;;;;;12.59;100.00;99622.63;10288420;28;20121;-61
2022/03/26 22:16:30;;;;;;;4.50;3.70;;;;;;;12.58;100.00;99629.91;10294954;28;20068;-59
2022/03/26 22:21:34;;;;;;;5.90;3.85;;;;;;;12.49;100.00;99625.38;10301697;28;20055;-61
2022/03/26 22:26:38;;;;;;;5.28;4.10;;;;;;;12.46;100.00;99625.66;10308859;28;20054;-57
2022/03/26 22:31:42;;;;;;;7.15;3.85;;;;;;;12.45;100.00;99623.94;10314280;28;20045;-54
2022/03/26 22:36:46;;;;;;;6.82;3.95;;;;;;;12.40;100.00;99626.25;10301742;28;20069;-60
2022/03/26 22:41:50;;;;;;;6.57;3.70;;;;;;;12.40;100.00;99626.25;10300824;28;20050;-58
2022/03/26 22:46:54;;;;;;;5.50;3.80;;;;;;;12.37;100.00;99626.50;10289832;28;20525;-58
2022/03/26 22:51:56;;;;;;;5.28;4.25;;;;;;;12.36;100.00;99630.22;10286601;28;20129;-59
2022/03/26 22:57:01;;;;;;;5.20;4.00;;;;;;;12.30;100.00;99627.06;10295046;28;20149;-59
2022/03/26 23:02:05;;;;;;;4.90;3.95;;;;;;;12.26;100.00;99628.38;10294127;28;20455;-60
2022/03/26 23:07:08;;;;;;;5.80;4.00;;;;;;;12.26;100.00;99628.38;10297047;28;20050;-57
2022/03/26 23:12:13;;;;;;;5.97;4.03;;;;;;;12.25;100.00;99631.19;10291873;28;20752;-57
2022/03/26 23:17:16;;;;;;;7.47;3.92;;;;;;;12.21;100.00;99630.63;10277308;28;20053;-58
2022/03/26 23:22:19;;;;;;;6.30;3.65;;;;;;;12.17;100.00;99627.38;10301220;28;20474;-56
2022/03/26 23:27:24;;;;;;;5.70;3.50;;;;;;;12.17;100.00;99615.72;10300253;28;20039;-57
2022/03/26 23:32:28;;;;;;;4.38;3.55;;;;;;;12.18;100.00;99620.97;10296918;28;20054;-55
2022/03/26 23:37:31;;;;;;;5.35;4.20;;;;;;;12.20;100.00;99631.63;10302041;28;20044;-57
2022/03/26 23:42:36;;;;;;;7.28;4.30;;;;;;;12.11;100.00;99641.41;10301065;28;20046;-57
2022/03/26 23:47:39;;;;;;;5.15;4.63;;;;;;;12.04;100.00;99642.16;10307588;28;20046;-54